Time;durP1;ratioP1;P1;durP2;ratioP2;P2;SDS_P1;SDS_P2;PMS_P1;PMS_P2;Temp;Humidity;BMP_temperature;BMP_pressure;BME280_temperature;BME280_humidity;BME280_pressure;Samples;Min_cycle;Max_cycle;Signal;HPM_P1;HPM_P2
2023/05/23 00:01:18;;;;;;;;;;;;;;;;;;5115631;28;19919;-70
2023/05/23 00:03:44;;;;;;;;;;;;;;;;;;5086932;28;19928;-70
2023/05/23 00:06:09;;;;;;;;;;;;;;;;;;5096330;28;19931;-70
2023/05/23 00:08:34;;;;;;;;;;;;;;;;;;5086051;28;19924;-70
2023/05/23 00:11:00;;;;;;;;;;;;;;;;;;5104336;28;19977;-70
2023/05/23 00:13:25;;;;;;;;;;;;;;;;;;5095636;28;20351;-70
2023/05/23 00:15:51;;;;;;;;;;;;;;;;;;5085761;28;19922;-69
2023/05/23 00:18:16;;;;;;;;;;;;;;;;;;5115709;28;20002;-68
2023/05/23 00:20:41;;;;;;;;;;;;;;;;;;5076603;28;20128;-70
2023/05/23 00:23:08;;;;;;;;;;;;;;;;;;5085655;28;19981;-72
2023/05/23 00:25:34;;;;;;;;;;;;;;;;;;5092044;28;19922;-70
2023/05/23 00:27:59;;;;;;;;;;;;;;;;;;5114748;28;19931;-70
2023/05/23 00:30:25;;;;;;;;;;;;;;;;;;5085339;28;19923;-70
2023/05/23 00:32:53;;;;;;;;;;;;;;;;;;5076937;28;20531;-70
2023/05/23 00:35:19;;;;;;;;;;;;;;;;;;5060268;28;19981;-70
2023/05/23 00:37:44;;;;;;;;;;;;;;;;;;5099799;28;19967;-70
2023/05/23 00:40:11;;;;;;;;;;;;;;;;;;5115365;28;19922;-70
2023/05/23 00:42:36;;;;;;;;;;;;;;;;;;5061002;28;20053;-70
2023/05/23 00:45:02;;;;;;;;;;;;;;;;;;5103656;28;20022;-70
2023/05/23 00:47:28;;;;;;;;;;;;;;;;;;5087508;28;20387;-70
2023/05/23 00:49:54;;;;;;;;;;;;;;;;;;5079407;28;19920;-70
2023/05/23 00:52:19;;;;;;;;;;;;;;;;;;5076409;28;19920;-70
2023/05/23 00:54:44;;;;;;;;;;;;;;;;;;5075612;28;19927;-70
2023/05/23 00:57:10;;;;;;;;;;;;;;;;;;5076579;28;19973;-70
2023/05/23 00:59:36;;;;;;;;;;;;;;;;;;5085076;28;20423;-69
2023/05/23 01:02:01;;;;;;;;;;;;;;;;;;5070603;28;20317;-70
2023/05/23 01:04:27;;;;;;;;;;;;;;;;;;5077183;28;20222;-70
2023/05/23 01:06:52;;;;;;;;;;;;;;;;;;5070547;28;20042;-72
2023/05/23 01:09:17;;;;;;;;;;;;;;;;;;5113779;28;19920;-70
2023/05/23 01:11:43;;;;;;;;;;;;;;;;;;5111181;28;20293;-70
2023/05/23 01:14:08;;;;;;;;;;;;;;;;;;5059400;28;20343;-69
2023/05/23 01:16:33;;;;;;;;;;;;;;;;;;5075700;28;19923;-70
2023/05/23 01:18:59;;;;;;;;;;;;;;;;;;5094200;28;20351;-70
2023/05/23 01:21:24;;;;;;;;;;;;;;;;;;5067102;28;19955;-70
2023/05/23 01:23:51;;;;;;;;;;;;;;;;;;5103962;28;19935;-69
2023/05/23 01:26:17;;;;;;;;;;;;;;;;;;5059541;28;19916;-69
2023/05/23 01:28:43;;;;;;;;;;;;;;;;;;5113952;28;19927;-70
2023/05/23 01:31:08;;;;;;;;;;;;;;;;;;5114594;28;20326;-70
2023/05/23 01:33:34;;;;;;;;;;;;;;;;;;5095982;28;19920;-70
2023/05/23 01:35:59;;;;;;;;;;;;;;;;;;5114316;28;19916;-71
2023/05/23 01:38:24;;;;;;;;;;;;;;;;;;5114062;28;19936;-70
2023/05/23 01:40:50;;;;;;;;;;;;;;;;;;5106423;28;19916;-71
2023/05/23 01:43:15;;;;;;;;;;;;;;;;;;5108350;28;19924;-70
2023/05/23 01:45:40;;;;;;;;;;;;;;;;;;5103207;28;19927;-70
2023/05/23 01:48:06;;;;;;;;;;;;;;;;;;5086040;28;19965;-70
2023/05/23 01:50:31;;;;;;;;;;;;;;;;;;5072807;28;19973;-70
2023/05/23 01:52:56;;;;;;;;;;;;;;;;;;5066409;28;20011;-71
2023/05/23 01:55:23;;;;;;;;;;;;;;;;;;5062810;28;19919;-70
2023/05/23 01:57:48;;;;;;;;;;;;;;;;;;5084238;28;20374;-71
2023/05/23 02:00:14;;;;;;;;;;;;;;;;;;5085824;28;19920;-70
2023/05/23 02:02:39;;;;;;;;;;;;;;;;;;5076063;28;20017;-70
2023/05/23 02:05:05;;;;;;;;;;;;;;;;;;5084573;28;20389;-70
2023/05/23 02:07:30;;;;;;;;;;;;;;;;;;5057819;28;19920;-69
2023/05/23 02:09:56;;;;;;;;;;;;;;;;;;5073438;28;19943;-70
2023/05/23 02:12:21;;;;;;;;;;;;;;;;;;5057977;28;19924;-70
2023/05/23 02:14:46;;;;;;;;;;;;;;;;;;5075000;28;20006;-70
2023/05/23 02:17:13;;;;;;;;;;;;;;;;;;5093458;28;19916;-69
2023/05/23 02:19:39;;;;;;;;;;;;;;;;;;5065681;28;19916;-70
2023/05/23 02:22:04;;;;;;;;;;;;;;;;;;5084048;28;20048;-70
2023/05/23 02:24:30;;;;;;;;;;;;;;;;;;5101518;28;20282;-70
2023/05/23 02:26:55;;;;;;;;;;;;;;;;;;5077294;28;19915;-70
2023/05/23 02:29:20;;;;;;;;;;;;;;;;;;5081084;28;19920;-70
2023/05/23 02:31:46;;;;;;;;;;;;;;;;;;5071640;28;19923;-71
2023/05/23 02:34:11;;;;;;;;;;;;;;;;;;5085343;28;19920;-71
2023/05/23 02:36:38;;;;;;;;;;;;;;;;;;5083767;28;19915;-70
2023/05/23 02:39:03;;;;;;;;;;;;;;;;;;5098248;28;20101;-70
2023/05/23 02:41:29;;;;;;;;;;;;;;;;;;5079653;28;20026;-70
2023/05/23 02:43:54;;;;;;;;;;;;;;;;;;5074639;28;19928;-71
2023/05/23 02:46:19;;;;;;;;;;;;;;;;;;5075578;28;20395;-70
2023/05/23 02:48:46;;;;;;;;;;;;;;;;;;5077464;28;19965;-70
2023/05/23 02:51:15;;;;;;;;;;;;;;;;;;5094692;28;19959;-69
2023/05/23 02:53:40;;;;;;;;;;;;;;;;;;5112709;28;19923;-71
2023/05/23 02:56:07;;;;;;;;;;;;;;;;;;5082833;28;19922;-71
2023/05/23 02:58:34;;;;;;;;;;;;;;;;;;5074548;28;19920;-71
2023/05/23 03:01:00;;;;;;;;;;;;;;;;;;5075881;28;21947;-70
2023/05/23 03:03:27;;;;;;;;;;;;;;;;;;5071175;28;19920;-70
2023/05/23 03:05:53;;;;;;;;;;;;;;;;;;5081895;28;20344;-70
2023/05/23 03:08:18;;;;;;;;;;;;;;;;;;5100705;28;19955;-70
2023/05/23 03:10:43;;;;;;;;;;;;;;;;;;5074910;28;19916;-70
2023/05/23 03:13:09;;;;;;;;;;;;;;;;;;5065712;28;19931;-70
2023/05/23 03:15:34;;;;;;;;;;;;;;;;;;5060811;28;19916;-70
2023/05/23 03:18:00;;;;;;;;;;;;;;;;;;5098750;28;20448;-71
2023/05/23 03:20:25;;;;;;;;;;;;;;;;;;5103847;28;19923;-71
2023/05/23 03:22:50;;;;;;;;;;;;;;;;;;5082262;28;19927;-70
2023/05/23 03:25:16;;;;;;;;;;;;;;;;;;5081677;28;19924;-70
2023/05/23 03:27:41;;;;;;;;;;;;;;;;;;5064076;28;19938;-71
2023/05/23 03:30:06;;;;;;;;;;;;;;;;;;5072676;28;19942;-70
2023/05/23 03:32:32;;;;;;;;;;;;;;;;;;5080829;28;19964;-70
2023/05/23 03:34:57;;;;;;;;;;;;;;;;;;5073767;28;19920;-70
2023/05/23 03:37:22;;;;;;;;;;;;;;;;;;5080746;28;19942;-70
2023/05/23 03:39:48;;;;;;;;;;;;;;;;;;5085255;28;19925;-70
2023/05/23 03:42:13;;;;;;;;;;;;;;;;;;5084216;28;19916;-70
2023/05/23 03:44:38;;;;;;;;;;;;;;;;;;5090418;28;20467;-70
2023/05/23 03:47:05;;;;;;;;;;;;;;;;;;5069689;28;20011;-69
2023/05/23 03:49:32;;;;;;;;;;;;;;;;;;5087389;28;20453;-70
2023/05/23 03:51:57;;;;;;;;;;;;;;;;;;5070280;28;20022;-70
2023/05/23 03:54:23;;;;;;;;;;;;;;;;;;5071437;28;19920;-71
2023/05/23 03:56:48;;;;;;;;;;;;;;;;;;5069839;28;19924;-70
2023/05/23 03:59:13;;;;;;;;;;;;;;;;;;5079883;28;20301;-70
2023/05/23 04:01:39;;;;;;;;;;;;;;;;;;5052236;28;20317;-68
2023/05/23 04:04:04;;;;;;;;;;;;;;;;;;5053603;28;19929;-68
2023/05/23 04:06:32;;;;;;;;;;;;;;;;;;5070222;28;19916;-71
2023/05/23 04:08:57;;;;;;;;;;;;;;;;;;5077655;28;20416;-70
2023/05/23 04:11:23;;;;;;;;;;;;;;;;;;5058448;28;19916;-69
2023/05/23 04:13:50;;;;;;;;;;;;;;;;;;5080842;28;19927;-69
2023/05/23 04:16:16;;;;;;;;;;;;;;;;;;5072369;28;19955;-70
2023/05/23 04:18:42;;;;;;;;;;;;;;;;;;5089727;28;19963;-71
2023/05/23 04:21:07;;;;;;;;;;;;;;;;;;5089168;28;19916;-69
2023/05/23 04:23:37;;;;;;;;;;;;;;;;;;5090011;28;19975;-70
2023/05/23 04:26:04;;;;;;;;;;;;;;;;;;5090025;28;19923;-71
2023/05/23 04:28:34;;;;;;;;;;;;;;;;;;5062478;28;19994;-71
2023/05/23 04:31:01;;;;;;;;;;;;;;;;;;5077606;28;20370;-69
2023/05/23 04:33:30;;;;;;;;;;;;;;;;;;5056734;28;20019;-70
2023/05/23 04:35:56;;;;;;;;;;;;;;;;;;5070766;28;20007;-69
2023/05/23 04:38:23;;;;;;;;;;;;;;;;;;5073644;28;20408;-71
2023/05/23 04:40:50;;;;;;;;;;;;;;;;;;5075095;28;19923;-72
2023/05/23 04:43:41;;;;;;;;;;;;;;;;;;5090113;28;20472;-71
2023/05/23 04:46:25;;;;;;;;;;;;;;;;;;5087607;28;19916;-69
2023/05/23 04:49:04;;;;;;;;;;;;;;;;;;5083622;28;20014;-71
2023/05/23 04:51:30;;;;;;;;;;;;;;;;;;5081207;28;20011;-68
2023/05/23 04:54:02;;;;;;;;;;;;;;;;;;5083304;28;19931;-72
2023/05/23 04:56:27;;;;;;;;;;;;;;;;;;5079720;28;19916;-71
2023/05/23 04:58:53;;;;;;;;;;;;;;;;;;5076435;28;20305;-71
2023/05/23 05:01:18;;;;;;;;;;;;;;;;;;5079409;28;19938;-70
2023/05/23 05:03:44;;;;;;;;;;;;;;;;;;5080649;28;19928;-71
2023/05/23 05:06:09;;;;;;;;;;;;;;;;;;5084655;28;19928;-71
2023/05/23 05:08:35;;;;;;;;;;;;;;;;;;5081414;28;19925;-71
2023/05/23 05:11:01;;;;;;;;;;;;;;;;;;5082171;28;19916;-67
2023/05/23 05:13:26;;;;;;;;;;;;;;;;;;5070149;28;19947;-70
2023/05/23 05:15:53;;;;;;;;;;;;;;;;;;5054519;28;19917;-67
2023/05/23 05:18:18;;;;;;;;;;;;;;;;;;5078157;28;19920;-65
2023/05/23 05:20:45;;;;;;;;;;;;;;;;;;5076062;28;19963;-67
2023/05/23 05:23:10;;;;;;;;;;;;;;;;;;5088460;28;20015;-68
2023/05/23 05:25:37;;;;;;;;;;;;;;;;;;5081945;28;20022;-68
2023/05/23 05:28:04;;;;;;;;;;;;;;;;;;5064277;28;19932;-68
2023/05/23 05:30:35;;;;;;;;;;;;;;;;;;5072716;28;20289;-69
2023/05/23 05:33:02;;;;;;;;;;;;;;;;;;5077343;28;19920;-68
2023/05/23 05:35:28;;;;;;;;;;;;;;;;;;5076646;28;19916;-68
2023/05/23 05:37:53;;;;;;;;;;;;;;;;;;5081119;28;19921;-68
2023/05/23 05:40:20;;;;;;;;;;;;;;;;;;5060339;28;20039;-66
2023/05/23 05:42:45;;;;;;;;;;;;;;;;;;5067679;28;20368;-68
2023/05/23 05:45:11;;;;;;;;;;;;;;;;;;5071459;28;19931;-69
2023/05/23 05:47:37;;;;;;;;;;;;;;;;;;5078535;28;19924;-68
2023/05/23 05:50:03;;;;;;;;;;;;;;;;;;5086866;28;19920;-68
2023/05/23 05:52:37;;;;;;;;;;;;;;;;;;5053867;28;19954;-68
2023/05/23 05:55:03;;;;;;;;;;;;;;;;;;5069777;28;20070;-68
2023/05/23 05:57:29;;;;;;;;;;;;;;;;;;5054670;28;20381;-69
2023/05/23 05:59:55;;;;;;;;;;;;;;;;;;5070541;28;19920;-69
2023/05/23 06:02:20;;;;;;;;;;;;;;;;;;5069139;28;19912;-70
2023/05/23 06:04:46;;;;;;;;;;;;;;;;;;5070235;28;19935;-69
2023/05/23 06:07:11;;;;;;;;;;;;;;;;;;5069513;28;19969;-69
2023/05/23 06:09:36;;;;;;;;;;;;;;;;;;5052622;28;19920;-69
2023/05/23 06:12:02;;;;;;;;;;;;;;;;;;5076852;28;19952;-69
2023/05/23 06:14:27;;;;;;;;;;;;;;;;;;5078249;28;19964;-69
2023/05/23 06:16:52;;;;;;;;;;;;;;;;;;5070006;28;19917;-68
2023/05/23 06:19:18;;;;;;;;;;;;;;;;;;5071195;28;19920;-67
2023/05/23 06:21:43;;;;;;;;;;;;;;;;;;5080607;28;19969;-67
2023/05/23 06:24:09;;;;;;;;;;;;;;;;;;5038376;28;19970;-68
2023/05/23 06:26:36;;;;;;;;;;;;;;;;;;5070634;28;19968;-68
2023/05/23 06:29:01;;;;;;;;;;;;;;;;;;5079342;28;19928;-65
2023/05/23 06:31:27;;;;;;;;;;;;;;;;;;5081043;28;19968;-68
2023/05/23 06:33:53;;;;;;;;;;;;;;;;;;5070524;28;19973;-68
2023/05/23 06:36:18;;;;;;;;;;;;;;;;;;5062942;28;19917;-69
2023/05/23 06:38:43;;;;;;;;;;;;;;;;;;5079157;28;19927;-68
2023/05/23 06:41:09;;;;;;;;;;;;;;;;;;5083536;28;19927;-67
2023/05/23 06:43:36;;;;;;;;;;;;;;;;;;5090575;28;20024;-67
2023/05/23 06:46:33;;;;;;;;;;;;;;;;;;5085548;28;20003;-68
2023/05/23 06:49:00;;;;;;;;;;;;;;;;;;5070376;28;19924;-69
2023/05/23 06:51:25;;;;;;;;;;;;;;;;;;5086371;28;20377;-70
2023/05/23 06:53:51;;;;;;;;;;;;;;;;;;5082502;28;19920;-69
2023/05/23 06:56:16;;;;;;;;;;;;;;;;;;5069504;28;20202;-69
2023/05/23 06:58:52;;;;;;;;;;;;;;;;;;5048514;28;19921;-68
2023/05/23 07:01:17;;;;;;;;;;;;;;;;;;5090387;28;19923;-69
2023/05/23 07:03:46;;;;;;;;;;;;;;;;;;5090504;28;19928;-68
2023/05/23 07:06:12;;;;;;;;;;;;;;;;;;5056518;28;19916;-64
2023/05/23 07:08:38;;;;;;;;;;;;;;;;;;5078950;28;19966;-68
2023/05/23 07:11:04;;;;;;;;;;;;;;;;;;5078037;28;19920;-69
2023/05/23 07:13:32;;;;;;;;;;;;;;;;;;5053435;28;19927;-68
2023/05/23 07:15:58;;;;;;;;;;;;;;;;;;5087964;28;19916;-67
2023/05/23 07:18:23;;;;;;;;;;;;;;;;;;5089760;28;19920;-67
2023/05/23 07:20:49;;;;;;;;;;;;;;;;;;5090683;28;20391;-67
2023/05/23 07:23:18;;;;;;;;;;;;;;;;;;5090290;28;20429;-67
2023/05/23 07:25:45;;;;;;;;;;;;;;;;;;5081405;28;20347;-67
2023/05/23 07:28:19;;;;;;;;;;;;;;;;;;5078880;28;19932;-67
2023/05/23 07:30:45;;;;;;;;;;;;;;;;;;5080453;28;20385;-67
2023/05/23 07:33:11;;;;;;;;;;;;;;;;;;5062021;28;20031;-68
2023/05/23 07:35:36;;;;;;;;;;;;;;;;;;5075266;28;19989;-68
2023/05/23 07:38:03;;;;;;;;;;;;;;;;;;5069470;28;19970;-67
2023/05/23 07:40:30;;;;;;;;;;;;;;;;;;5069449;28;19920;-67
2023/05/23 07:42:56;;;;;;;;;;;;;;;;;;5077752;28;19920;-65
2023/05/23 07:45:21;;;;;;;;;;;;;;;;;;5079744;28;19935;-65
2023/05/23 07:47:48;;;;;;;;;;;;;;;;;;5074138;28;19936;-66
2023/05/23 07:50:14;;;;;;;;;;;;;;;;;;5081911;28;19916;-66
2023/05/23 07:52:40;;;;;;;;;;;;;;;;;;5077810;28;19921;-67
2023/05/23 07:55:05;;;;;;;;;;;;;;;;;;5078376;28;19920;-64
2023/05/23 07:57:31;;;;;;;;;;;;;;;;;;5088686;28;19916;-63
2023/05/23 07:59:57;;;;;;;;;;;;;;;;;;5082721;28;20463;-69
2023/05/23 08:02:24;;;;;;;;;;;;;;;;;;5076821;28;19923;-69
2023/05/23 08:04:49;;;;;;;;;;;;;;;;;;5054990;28;19936;-67
2023/05/23 08:07:15;;;;;;;;;;;;;;;;;;5087410;28;19916;-67
2023/05/23 08:09:44;;;;;;;;;;;;;;;;;;5075417;28;19920;-68
2023/05/23 08:12:13;;;;;;;;;;;;;;;;;;5087136;28;20386;-70
2023/05/23 08:14:38;;;;;;;;;;;;;;;;;;5061778;28;20018;-67
2023/05/23 08:17:12;;;;;;;;;;;;;;;;;;5083474;28;20018;-67
2023/05/23 08:19:38;;;;;;;;;;;;;;;;;;5064308;28;20498;-68
2023/05/23 08:22:03;;;;;;;;;;;;;;;;;;5071885;28;19916;-67
2023/05/23 08:24:29;;;;;;;;;;;;;;;;;;5081754;28;20413;-67
2023/05/23 08:26:55;;;;;;;;;;;;;;;;;;5080314;28;19966;-68
2023/05/23 08:29:20;;;;;;;;;;;;;;;;;;5076244;28;19932;-67
2023/05/23 08:31:46;;;;;;;;;;;;;;;;;;5074612;28;20440;-64
2023/05/23 08:34:13;;;;;;;;;;;;;;;;;;5081127;28;19920;-66
2023/05/23 08:36:38;;;;;;;;;;;;;;;;;;5084880;28;19916;-67
2023/05/23 08:39:06;;;;;;;;;;;;;;;;;;5093135;28;19946;-66
2023/05/23 08:41:36;;;;;;;;;;;;;;;;;;5092987;28;20014;-65
2023/05/23 08:44:05;;;;;;;;;;;;;;;;;;5091364;28;19980;-67
2023/05/23 08:46:36;;;;;;;;;;;;;;;;;;5075956;28;19974;-67
2023/05/23 08:49:01;;;;;;;;;;;;;;;;;;5080726;28;20384;-67
2023/05/23 08:51:27;;;;;;;;;;;;;;;;;;5072743;28;19928;-67
2023/05/23 08:53:55;;;;;;;;;;;;;;;;;;5084207;28;19927;-68
2023/05/23 08:56:23;;;;;;;;;;;;;;;;;;5092565;28;19916;-65
2023/05/23 08:58:49;;;;;;;;;;;;;;;;;;5092419;28;20404;-67
2023/05/23 09:01:19;;;;;;;;;;;;;;;;;;5078263;28;19916;-67
2023/05/23 09:03:44;;;;;;;;;;;;;;;;;;5083473;28;20363;-68
2023/05/23 09:06:39;;;;;;;;;;;;;;;;;;5072081;28;19917;-67
2023/05/23 09:09:05;;;;;;;;;;;;;;;;;;5085138;28;19965;-68
2023/05/23 09:11:33;;;;;;;;;;;;;;;;;;5067667;28;20012;-67
2023/05/23 09:13:58;;;;;;;;;;;;;;;;;;5098783;28;19920;-67
2023/05/23 09:16:25;;;;;;;;;;;;;;;;;;5093401;28;19969;-66
2023/05/23 09:18:55;;;;;;;;;;;;;;;;;;5075750;28;19924;-65
2023/05/23 09:21:21;;;;;;;;;;;;;;;;;;5075214;28;20019;-66
2023/05/23 09:24:13;;;;;;;;;;;;;;;;;;5091748;28;19928;-67
2023/05/23 09:26:38;;;;;;;;;;;;;;;;;;5092371;28;19923;-66
2023/05/23 09:29:03;;;;;;;;;;;;;;;;;;5098367;28;19934;-67
2023/05/23 09:31:29;;;;;;;;;;;;;;;;;;5074987;28;20018;-68
2023/05/23 09:33:55;;;;;;;;;;;;;;;;;;5071025;28;20440;-67
2023/05/23 09:36:20;;;;;;;;;;;;;;;;;;5106647;28;19997;-67
2023/05/23 09:38:46;;;;;;;;;;;;;;;;;;5083450;28;19926;-67
2023/05/23 09:41:12;;;;;;;;;;;;;;;;;;5095547;28;19916;-66
2023/05/23 09:43:37;;;;;;;;;;;;;;;;;;5093571;28;20326;-66
2023/05/23 09:46:02;;;;;;;;;;;;;;;;;;5086307;28;19923;-67
2023/05/23 09:48:32;;;;;;;;;;;;;;;;;;5084356;28;19919;-66
2023/05/23 09:51:02;;;;;;;;;;;;;;;;;;5058857;28;19916;-66
2023/05/23 09:53:27;;;;;;;;;;;;;;;;;;5096217;28;19919;-68
2023/05/23 09:55:53;;;;;;;;;;;;;;;;;;5082596;28;19949;-68
2023/05/23 09:58:18;;;;;;;;;;;;;;;;;;5095780;28;20015;-67
2023/05/23 10:00:43;;;;;;;;;;;;;;;;;;5093606;28;19916;-67
2023/05/23 10:03:12;;;;;;;;;;;;;;;;;;5110099;28;19968;-68
2023/05/23 10:05:38;;;;;;;;;;;;;;;;;;5105216;28;19964;-67
2023/05/23 10:08:03;;;;;;;;;;;;;;;;;;5101462;28;19977;-68
2023/05/23 10:10:28;;;;;;;;;;;;;;;;;;5102850;28;19959;-67
2023/05/23 10:12:54;;;;;;;;;;;;;;;;;;5103318;28;19958;-69
2023/05/23 10:15:19;;;;;;;;;;;;;;;;;;5094011;28;20333;-68
2023/05/23 10:17:45;;;;;;;;;;;;;;;;;;5113086;28;19920;-67
2023/05/23 10:20:11;;;;;;;;;;;;;;;;;;5074245;28;19920;-67
2023/05/23 10:22:36;;;;;;;;;;;;;;;;;;5093680;28;19915;-67
2023/05/23 10:25:02;;;;;;;;;;;;;;;;;;5100756;28;19970;-67
2023/05/23 10:27:28;;;;;;;;;;;;;;;;;;5083145;28;20014;-68
2023/05/23 10:29:53;;;;;;;;;;;;;;;;;;5085948;28;20457;-66
2023/05/23 10:32:19;;;;;;;;;;;;;;;;;;5084278;28;20424;-64
2023/05/23 10:34:46;;;;;;;;;;;;;;;;;;5043019;28;19920;-65
2023/05/23 10:37:12;;;;;;;;;;;;;;;;;;5098613;28;20300;-63
2023/05/23 10:39:37;;;;;;;;;;;;;;;;;;5070430;28;19920;-66
2023/05/23 10:42:02;;;;;;;;;;;;;;;;;;5102853;28;19916;-69
2023/05/23 10:44:28;;;;;;;;;;;;;;;;;;5084629;28;19993;-66
2023/05/23 10:46:53;;;;;;;;;;;;;;;;;;5106255;28;20007;-69
2023/05/23 10:49:19;;;;;;;;;;;;;;;;;;5090956;28;20381;-71
2023/05/23 10:51:44;;;;;;;;;;;;;;;;;;5097092;28;19923;-68
2023/05/23 10:54:09;;;;;;;;;;;;;;;;;;5100147;28;19924;-66
2023/05/23 10:56:35;;;;;;;;;;;;;;;;;;5104623;28;19920;-68
2023/05/23 10:59:01;;;;;;;;;;;;;;;;;;5106208;28;20455;-67
2023/05/23 11:01:28;;;;;;;;;;;;;;;;;;5051631;28;19919;-68
2023/05/23 11:03:53;;;;;;;;;;;;;;;;;;5080246;28;20370;-66
2023/05/23 11:06:18;;;;;;;;;;;;;;;;;;5100981;28;19916;-68
2023/05/23 11:08:44;;;;;;;;;;;;;;;;;;5099397;28;20333;-62
2023/05/23 11:11:10;;;;;;;;;;;;;;;;;;5097699;28;19920;-63
2023/05/23 11:13:35;;;;;;;;;;;;;;;;;;5098738;28;20007;-62
2023/05/23 11:16:00;;;;;;;;;;;;;;;;;;5081542;28;19916;-62
2023/05/23 11:18:26;;;;;;;;;;;;;;;;;;5102112;28;21547;-64
2023/05/23 11:20:51;;;;;;;;;;;;;;;;;;5109189;27;19920;-64
2023/05/23 11:23:16;;;;;;;;;;;;;;;;;;5108636;27;20284;-64
2023/05/23 11:25:42;;;;;;;;;;;;;;;;;;5104053;28;19924;-64
2023/05/23 11:28:07;;;;;;;;;;;;;;;;;;5059564;28;19972;-62
2023/05/23 11:30:33;;;;;;;;;;;;;;;;;;5076813;28;20445;-63
2023/05/23 11:32:58;;;;;;;;;;;;;;;;;;5108696;28;20408;-64
2023/05/23 11:35:23;;;;;;;;;;;;;;;;;;5080551;28;20384;-63
2023/05/23 11:37:49;;;;;;;;;;;;;;;;;;5101013;28;20045;-63
2023/05/23 11:40:14;;;;;;;;;;;;;;;;;;5073667;28;19920;-63
2023/05/23 11:42:39;;;;;;;;;;;;;;;;;;5094343;28;20631;-65
2023/05/23 11:45:04;;;;;;;;;;;;;;;;;;5068080;28;20313;-63
2023/05/23 11:47:30;;;;;;;;;;;;;;;;;;5096825;28;19920;-63
2023/05/23 11:49:55;;;;;;;;;;;;;;;;;;5091599;28;19920;-64
2023/05/23 11:52:21;;;;;;;;;;;;;;;;;;5095400;28;19977;-63
2023/05/23 11:54:46;;;;;;;;;;;;;;;;;;5111166;28;19926;-63
2023/05/23 11:57:12;;;;;;;;;;;;;;;;;;5103693;28;19922;-64
2023/05/23 11:59:38;;;;;;;;;;;;;;;;;;5100232;28;19973;-64
2023/05/23 12:02:03;;;;;;;;;;;;;;;;;;5103638;28;20365;-62
2023/05/23 12:04:29;;;;;;;;;;;;;;;;;;5076712;28;19935;-66
2023/05/23 12:06:54;;;;;;;;;;;;;;;;;;5108174;28;19923;-63
2023/05/23 12:09:20;;;;;;;;;;;;;;;;;;5102988;28;20194;-64
2023/05/23 12:11:45;;;;;;;;;;;;;;;;;;5104641;28;20022;-64
2023/05/23 12:14:11;;;;;;;;;;;;;;;;;;5110608;28;20057;-63
2023/05/23 12:16:36;;;;;;;;;;;;;;;;;;5114075;28;19916;-64
2023/05/23 12:19:01;;;;;;;;;;;;;;;;;;5089058;28;19926;-64
2023/05/23 12:21:27;;;;;;;;;;;;;;;;;;5113174;28;19916;-61
2023/05/23 12:23:52;;;;;;;;;;;;;;;;;;5109006;28;19958;-63
2023/05/23 12:26:17;;;;;;;;;;;;;;;;;;5105427;28;19919;-64
2023/05/23 12:28:44;;;;;;;;;;;;;;;;;;5106957;27;20288;-63
2023/05/23 12:31:09;;;;;;;;;;;;;;;;;;5107950;28;19919;-64
2023/05/23 12:33:34;;;;;;;;;;;;;;;;;;5097981;28;19942;-64
2023/05/23 12:36:00;;;;;;;;;;;;;;;;;;5078535;28;20034;-63
2023/05/23 12:38:25;;;;;;;;;;;;;;;;;;5113245;28;19920;-63
2023/05/23 12:40:50;;;;;;;;;;;;;;;;;;5107240;28;19915;-64
2023/05/23 12:43:16;;;;;;;;;;;;;;;;;;5087400;28;19923;-65
2023/05/23 12:45:42;;;;;;;;;;;;;;;;;;5085901;28;19924;-64
2023/05/23 12:48:07;;;;;;;;;;;;;;;;;;5112147;27;19919;-64
2023/05/23 12:50:32;;;;;;;;;;;;;;;;;;5103303;28;20014;-63
2023/05/23 12:52:58;;;;;;;;;;;;;;;;;;5102674;28;19920;-63
2023/05/23 12:55:23;;;;;;;;;;;;;;;;;;5105686;28;19916;-64
2023/05/23 12:57:48;;;;;;;;;;;;;;;;;;5064113;28;20425;-61
2023/05/23 13:00:14;;;;;;;;;;;;;;;;;;5094458;28;19916;-63
2023/05/23 13:02:41;;;;;;;;;;;;;;;;;;5085903;28;20321;-64
2023/05/23 13:05:06;;;;;;;;;;;;;;;;;;5082671;28;19920;-65
2023/05/23 13:07:31;;;;;;;;;;;;;;;;;;5075141;28;19915;-62
2023/05/23 13:09:57;;;;;;;;;;;;;;;;;;5077791;28;19920;-66
2023/05/23 13:12:22;;;;;;;;;;;;;;;;;;5076017;28;20356;-64
2023/05/23 13:14:47;;;;;;;;;;;;;;;;;;5073686;28;20463;-65
2023/05/23 13:17:14;;;;;;;;;;;;;;;;;;5067798;28;19915;-66
2023/05/23 13:19:39;;;;;;;;;;;;;;;;;;5085503;28;19926;-65
2023/05/23 13:22:04;;;;;;;;;;;;;;;;;;5103176;28;19923;-66
2023/05/23 13:24:30;;;;;;;;;;;;;;;;;;5077104;28;20403;-64
2023/05/23 13:26:55;;;;;;;;;;;;;;;;;;5077885;28;19916;-67
2023/05/23 13:29:21;;;;;;;;;;;;;;;;;;5083322;28;19932;-64
2023/05/23 13:31:47;;;;;;;;;;;;;;;;;;5085076;28;19916;-63
2023/05/23 13:34:12;;;;;;;;;;;;;;;;;;5102542;28;19919;-66
2023/05/23 13:36:37;;;;;;;;;;;;;;;;;;5112736;28;20548;-66
2023/05/23 13:39:03;;;;;;;;;;;;;;;;;;5093028;28;19932;-66
2023/05/23 13:41:28;;;;;;;;;;;;;;;;;;5104904;28;19916;-65
2023/05/23 13:43:53;;;;;;;;;;;;;;;;;;5095857;28;19950;-66
2023/05/23 13:46:19;;;;;;;;;;;;;;;;;;5096764;28;19916;-65
2023/05/23 13:48:44;;;;;;;;;;;;;;;;;;5090495;28;19920;-66
2023/05/23 13:51:09;;;;;;;;;;;;;;;;;;5095863;28;19988;-64
2023/05/23 13:53:35;;;;;;;;;;;;;;;;;;5082516;28;19948;-66
2023/05/23 13:56:00;;;;;;;;;;;;;;;;;;5102956;28;20580;-64
2023/05/23 13:58:25;;;;;;;;;;;;;;;;;;5100653;28;19924;-67
2023/05/23 14:00:51;;;;;;;;;;;;;;;;;;5056710;28;20305;-66
2023/05/23 14:03:18;;;;;;;;;;;;;;;;;;5056899;28;19969;-63
2023/05/23 14:05:43;;;;;;;;;;;;;;;;;;5078320;27;19934;-66
2023/05/23 14:08:10;;;;;;;;;;;;;;;;;;5103867;27;19920;-64
2023/05/23 14:10:36;;;;;;;;;;;;;;;;;;5101958;28;19948;-62
2023/05/23 14:13:01;;;;;;;;;;;;;;;;;;5072006;28;20034;-62
2023/05/23 14:15:27;;;;;;;;;;;;;;;;;;5090044;28;19931;-61
2023/05/23 14:17:54;;;;;;;;;;;;;;;;;;5090742;28;19920;-64
2023/05/23 14:20:19;;;;;;;;;;;;;;;;;;5073021;28;19939;-61
2023/05/23 14:22:45;;;;;;;;;;;;;;;;;;5056346;28;20285;-61
2023/05/23 14:25:10;;;;;;;;;;;;;;;;;;5104531;28;19950;-61
2023/05/23 14:27:36;;;;;;;;;;;;;;;;;;5092599;28;19993;-62
2023/05/23 14:30:01;;;;;;;;;;;;;;;;;;5089528;28;20377;-62
2023/05/23 14:32:26;;;;;;;;;;;;;;;;;;5062839;28;19923;-62
2023/05/23 14:34:52;;;;;;;;;;;;;;;;;;5100713;28;20480;-63
2023/05/23 14:37:17;;;;;;;;;;;;;;;;;;5099411;28;19916;-60
2023/05/23 14:39:43;;;;;;;;;;;;;;;;;;5074975;28;19920;-62
2023/05/23 14:42:09;;;;;;;;;;;;;;;;;;5091303;28;20448;-63
2023/05/23 14:44:34;;;;;;;;;;;;;;;;;;5110670;28;19927;-64
2023/05/23 14:46:59;;;;;;;;;;;;;;;;;;5071671;28;20020;-64
2023/05/23 14:49:25;;;;;;;;;;;;;;;;;;5097911;28;19946;-63
2023/05/23 14:51:50;;;;;;;;;;;;;;;;;;5108765;28;19999;-62
2023/05/23 14:54:15;;;;;;;;;;;;;;;;;;5075860;28;20415;-61
2023/05/23 14:56:41;;;;;;;;;;;;;;;;;;5079456;28;19916;-63
2023/05/23 14:59:07;;;;;;;;;;;;;;;;;;5039567;28;19920;-66
2023/05/23 15:01:32;;;;;;;;;;;;;;;;;;5064093;28;19916;-63
2023/05/23 15:03:58;;;;;;;;;;;;;;;;;;5099269;28;19953;-64
2023/05/23 15:06:23;;;;;;;;;;;;;;;;;;5107519;28;19915;-62
2023/05/23 15:08:48;;;;;;;;;;;;;;;;;;5101349;28;19926;-62
2023/05/23 15:11:14;;;;;;;;;;;;;;;;;;5079920;28;19916;-62
2023/05/23 15:13:39;;;;;;;;;;;;;;;;;;5076887;28;20064;-65
2023/05/23 15:16:05;;;;;;;;;;;;;;;;;;5041897;28;20020;-64
2023/05/23 15:18:31;;;;;;;;;;;;;;;;;;5080619;28;19924;-65
2023/05/23 15:20:56;;;;;;;;;;;;;;;;;;5078935;28;19962;-64
2023/05/23 15:23:22;;;;;;;;;;;;;;;;;;5100778;28;20347;-65
2023/05/23 15:25:47;;;;;;;;;;;;;;;;;;5091844;28;20273;-63
2023/05/23 15:28:12;;;;;;;;;;;;;;;;;;5035027;28;1923931;-63
2023/05/23 15:30:37;;;;;;;;;;;;;;;;;;5080653;28;19916;-65
2023/05/23 15:33:03;;;;;;;;;;;;;;;;;;5101380;28;19920;-74
2023/05/23 15:35:28;;;;;;;;;;;;;;;;;;5090312;28;20330;-65
2023/05/23 15:37:54;;;;;;;;;;;;;;;;;;5088913;28;19923;-72
2023/05/23 15:40:20;;;;;;;;;;;;;;;;;;5100584;28;19920;-71
2023/05/23 15:42:46;;;;;;;;;;;;;;;;;;5100376;28;19919;-68
2023/05/23 15:45:11;;;;;;;;;;;;;;;;;;5091161;28;20030;-69
2023/05/23 15:47:36;;;;;;;;;;;;;;;;;;5102934;28;19915;-63
2023/05/23 15:50:02;;;;;;;;;;;;;;;;;;5111292;28;19993;-66
2023/05/23 15:52:28;;;;;;;;;;;;;;;;;;5092042;28;19945;-65
2023/05/23 15:54:54;;;;;;;;;;;;;;;;;;5111555;28;19998;-65
2023/05/23 15:57:19;;;;;;;;;;;;;;;;;;5093121;28;19922;-67
2023/05/23 15:59:45;;;;;;;;;;;;;;;;;;5111110;28;20347;-67
2023/05/23 16:02:10;;;;;;;;;;;;;;;;;;5111160;28;19926;-65
2023/05/23 16:04:37;;;;;;;;;;;;;;;;;;5081924;28;19932;-66
2023/05/23 16:07:02;;;;;;;;;;;;;;;;;;5091017;28;20014;-65
2023/05/23 16:09:28;;;;;;;;;;;;;;;;;;5090529;28;20027;-66
2023/05/23 16:11:53;;;;;;;;;;;;;;;;;;5073470;28;19922;-66
2023/05/23 16:14:18;;;;;;;;;;;;;;;;;;5077739;28;19926;-65
2023/05/23 16:16:44;;;;;;;;;;;;;;;;;;5088291;28;20006;-66
2023/05/23 16:19:09;;;;;;;;;;;;;;;;;;5099908;28;19920;-68
2023/05/23 16:21:35;;;;;;;;;;;;;;;;;;5103830;28;19916;-63
2023/05/23 16:24:00;;;;;;;;;;;;;;;;;;5110225;28;19939;-64
2023/05/23 16:26:27;;;;;;;;;;;;;;;;;;5104013;28;19915;-64
2023/05/23 16:28:53;;;;;;;;;;;;;;;;;;5098666;28;20380;-65
2023/05/23 16:31:19;;;;;;;;;;;;;;;;;;5081283;28;19916;-63
2023/05/23 16:33:45;;;;;;;;;;;;;;;;;;5105302;28;20057;-63
2023/05/23 16:36:11;;;;;;;;;;;;;;;;;;5096225;28;19919;-64
2023/05/23 16:38:36;;;;;;;;;;;;;;;;;;5113539;28;20395;-65